Hebron, Nebraska
Current Conditions -  °F | °C
As of 9:55 AM on Sunday 25 Jan 2015 (Local Time) from KHJH Reporting Station
Overcast Overcast  
Wind Chill: 31°   Ceiling: 1900
Heat Index: 40°   Visibility: 10mi
Dew Point: 32°   Wind: 20mph
Humidity: 73%   Direction: 350°N
Pressure: 29.95"   Gusts: 29mph
Location:  40.17°N, 97.59°W
Report Text: KHJH 251555Z AUTO 35017G25KT 10SM OVC019 05/00 A2995 RMK AO2 T00450000
Loading
Personal Weather Stations






























Interactive Weather Map New forecast layout! Learn more

10-Day Weather Forecast

Advertisements
Track Severe Weather on mobile